Time;durP1;ratioP1;P1;durP2;ratioP2;P2;SDS_P1;SDS_P2;PMS_P1;PMS_P2;Temp;Humidity;BMP_temperature;BMP_pressure;BME280_temperature;BME280_humidity;BME280_pressure;Samples;Min_cycle;Max_cycle;Signal;HPM_P1;HPM_P2
2021/11/02 00:01:12;;;;;;;4.30;2.53;;;9.80;99.90;;;;;;5044763;28;20441;-85
2021/11/02 00:03:40;;;;;;;4.50;2.33;;;9.80;99.90;;;;;;5044895;28;20456;-85
2021/11/02 00:06:07;;;;;;;4.13;2.47;;;9.80;99.90;;;;;;5048132;28;20476;-84
2021/11/02 00:08:34;;;;;;;4.97;2.35;;;9.90;99.90;;;;;;5045043;28;20472;-85
2021/11/02 00:11:01;;;;;;;6.03;2.63;;;9.90;99.90;;;;;;5041751;28;20272;-86
2021/11/02 00:13:34;;;;;;;5.93;2.20;;;10.00;99.90;;;;;;5041704;28;20548;-86
2021/11/02 00:16:07;;;;;;;5.90;2.77;;;10.00;99.90;;;;;;5049769;28;20437;-84
2021/11/02 00:18:35;;;;;;;7.13;2.50;;;10.00;99.90;;;;;;5048199;28;20469;-84
2021/11/02 00:21:02;;;;;;;4.03;2.40;;;10.00;99.90;;;;;;5041801;28;20530;-85
2021/11/02 00:23:35;;;;;;;6.60;2.50;;;10.10;99.90;;;;;;5041036;28;20277;-85
2021/11/02 00:26:03;;;;;;;5.03;2.00;;;10.10;99.90;;;;;;5040402;28;20972;-85
2021/11/02 00:28:29;;;;;;;4.20;2.47;;;10.10;99.90;;;;;;5040225;28;20496;-85
2021/11/02 00:30:56;;;;;;;6.27;2.33;;;10.10;99.90;;;;;;5040646;28;20485;-85
2021/11/02 00:33:25;;;;;;;4.10;2.20;;;10.10;99.90;;;;;;5040898;28;20453;-84
2021/11/02 00:35:51;;;;;;;5.03;2.10;;;10.20;99.90;;;;;;5040732;28;20522;-85
2021/11/02 00:38:18;;;;;;;4.47;2.40;;;10.30;99.90;;;;;;5040881;28;20519;-84
2021/11/02 00:40:46;;;;;;;4.30;1.83;;;10.20;99.90;;;;;;5049689;28;20550;-85
2021/11/02 00:43:13;;;;;;;5.30;2.50;;;10.30;99.90;;;;;;5050166;28;20452;-85
2021/11/02 00:45:41;;;;;;;4.87;2.27;;;10.30;99.90;;;;;;5047721;28;20462;-85
2021/11/02 00:48:11;;;;;;;3.93;2.00;;;10.20;99.90;;;;;;5044369;28;20492;-85
2021/11/02 00:50:41;;;;;;;4.33;2.17;;;10.30;99.90;;;;;;5045259;28;20865;-85
2021/11/02 00:53:09;;;;;;;3.67;2.20;;;10.30;99.90;;;;;;5044629;28;20519;-84
2021/11/02 00:55:36;;;;;;;5.07;2.13;;;10.30;99.90;;;;;;5043622;28;20456;-85
2021/11/02 00:58:05;;;;;;;3.87;1.90;;;10.30;99.90;;;;;;5044440;28;20484;-84
2021/11/02 01:00:33;;;;;;;4.87;2.27;;;10.30;99.90;;;;;;5044249;28;20519;-86
2021/11/02 01:03:00;;;;;;;5.70;1.97;;;10.30;99.90;;;;;;5043948;28;20555;-85
2021/11/02 01:05:27;;;;;;;5.47;1.90;;;10.20;99.90;;;;;;5041768;28;20467;-85
2021/11/02 01:07:55;;;;;;;4.87;2.10;;;10.30;99.90;;;;;;5041185;28;20471;-84
2021/11/02 01:10:23;;;;;;;3.93;1.93;;;10.20;99.90;;;;;;5041051;28;20518;-84
2021/11/02 01:12:52;;;;;;;4.67;1.70;;;10.30;99.90;;;;;;5043576;28;20479;-85
2021/11/02 01:15:21;;;;;;;5.20;1.73;;;10.40;99.90;;;;;;5055215;28;20435;-84
2021/11/02 01:17:48;;;;;;;6.70;2.40;;;10.40;99.90;;;;;;5047947;28;20447;-85
2021/11/02 01:20:16;;;;;;;8.43;2.10;;;10.40;99.90;;;;;;5044017;28;20488;-84
2021/11/02 01:22:45;;;;;;;6.33;2.37;;;10.60;99.90;;;;;;5043906;28;20466;-85
2021/11/02 01:25:15;;;;;;;5.60;1.70;;;10.50;99.90;;;;;;5043280;28;20458;-85
2021/11/02 01:27:42;;;;;;;4.90;2.17;;;10.60;99.90;;;;;;5042878;28;20443;-85
2021/11/02 01:30:11;;;;;;;7.27;2.97;;;10.50;99.90;;;;;;5043159;28;20487;-84
2021/11/02 01:32:38;;;;;;;4.77;2.23;;;10.50;99.90;;;;;;5049069;28;20523;-85
2021/11/02 01:35:06;;;;;;;5.43;2.07;;;10.60;99.90;;;;;;5047358;28;20456;-85
2021/11/02 01:37:34;;;;;;;6.20;2.03;;;10.70;99.90;;;;;;5047550;28;20451;-85
2021/11/02 01:40:01;;;;;;;3.83;1.83;;;10.80;99.90;;;;;;5043883;28;20961;-85
2021/11/02 01:42:29;;;;;;;6.60;2.23;;;10.70;99.90;;;;;;5050089;28;20504;-84
2021/11/02 01:44:59;;;;;;;5.30;1.90;;;10.70;99.90;;;;;;5048633;28;20539;-85
2021/11/02 01:47:26;;;;;;;5.10;1.57;;;10.70;99.90;;;;;;5043338;28;20493;-85
2021/11/02 01:49:53;;;;;;;8.40;2.33;;;10.70;99.90;;;;;;5045211;28;20864;-86
2021/11/02 01:52:20;;;;;;;4.00;1.97;;;10.70;99.90;;;;;;5051471;28;20456;-85
2021/11/02 01:54:47;;;;;;;8.83;2.20;;;10.70;99.90;;;;;;5042133;28;20452;-85
2021/11/02 01:57:13;;;;;;;4.57;2.20;;;10.70;99.90;;;;;;5042370;28;20536;-85
2021/11/02 01:59:42;;;;;;;3.57;1.70;;;10.80;99.90;;;;;;5042594;28;20550;-85
2021/11/02 02:02:14;;;;;;;3.67;1.43;;;10.70;99.90;;;;;;5046989;28;20515;-84
2021/11/02 02:04:52;;;;;;;4.83;2.30;;;10.70;99.90;;;;;;5048831;28;20412;-85
2021/11/02 02:07:27;;;;;;;5.60;1.90;;;10.70;99.90;;;;;;5039781;28;20529;-85
2021/11/02 02:10:03;;;;;;;3.23;1.43;;;10.70;99.90;;;;;;5039876;28;20886;-84
2021/11/02 02:12:44;;;;;;;6.47;2.27;;;10.70;99.90;;;;;;5040485;28;20441;-84
2021/11/02 02:15:19;;;;;;;7.10;2.00;;;10.70;99.90;;;;;;5040790;28;20447;-85
2021/11/02 02:17:58;;;;;;;4.03;1.60;;;10.80;99.90;;;;;;5041049;28;20438;-86
2021/11/02 02:20:40;;;;;;;4.23;1.40;;;10.80;99.90;;;;;;5041800;28;20567;-84
2021/11/02 02:23:33;;;;;;;3.23;1.67;;;10.70;99.90;;;;;;5041412;28;20415;-85
2021/11/02 02:26:06;;;;;;;3.90;1.73;;;10.60;99.90;;;;;;5054273;28;20419;-84
2021/11/02 02:28:38;;;;;;;4.47;1.50;;;10.60;99.90;;;;;;5043437;28;20536;-85
2021/11/02 02:31:07;;;;;;;4.30;1.83;;;10.70;99.90;;;;;;5043375;28;20404;-85
2021/11/02 02:33:37;;;;;;;3.57;1.40;;;10.70;99.90;;;;;;5041849;28;20991;-84
2021/11/02 02:36:05;;;;;;;6.03;3.13;;;10.80;99.90;;;;;;5042295;28;20469;-84
2021/11/02 02:38:34;;;;;;;3.77;1.10;;;10.70;99.90;;;;;;5042685;28;20495;-84
2021/11/02 02:41:02;;;;;;;4.00;1.70;;;10.70;99.90;;;;;;5040445;28;20495;-85
2021/11/02 02:43:29;;;;;;;3.10;1.00;;;10.70;99.90;;;;;;5046463;28;20476;-85
2021/11/02 02:46:00;;;;;;;5.27;1.47;;;10.70;99.90;;;;;;5045161;28;20773;-85
2021/11/02 02:48:27;;;;;;;4.07;1.50;;;10.60;99.90;;;;;;5041845;28;20516;-85
2021/11/02 02:50:57;;;;;;;3.80;1.43;;;10.60;99.90;;;;;;5042255;28;20487;-85
2021/11/02 02:53:25;;;;;;;4.90;1.53;;;10.60;99.90;;;;;;5042274;28;20460;-84
2021/11/02 02:55:54;;;;;;;5.40;1.57;;;10.60;99.90;;;;;;5042006;28;20431;-84
2021/11/02 02:58:22;;;;;;;4.00;1.67;;;10.50;99.90;;;;;;5042167;28;20471;-84
2021/11/02 03:00:49;;;;;;;5.77;1.37;;;10.50;99.90;;;;;;5041955;28;21017;-84
2021/11/02 03:03:19;;;;;;;3.53;1.60;;;10.40;99.90;;;;;;5041822;28;20959;-84
2021/11/02 03:05:46;;;;;;;3.90;1.50;;;10.50;99.90;;;;;;5040812;28;20853;-84
2021/11/02 03:08:13;;;;;;;4.97;1.73;;;10.40;99.90;;;;;;5041472;28;20506;-84
2021/11/02 03:10:44;;;;;;;3.83;1.30;;;10.40;99.90;;;;;;5056247;28;20448;-83
2021/11/02 03:13:15;;;;;;;4.37;1.60;;;10.50;99.90;;;;;;5042617;28;20497;-84
2021/11/02 03:15:54;;;;;;;8.73;1.90;;;10.60;99.90;;;;;;5043319;28;20456;-84
2021/11/02 03:49:23;;;;;;;3.47;1.40;;;10.00;99.90;;;;;;5020711;28;20892;-84
2021/11/02 03:54:27;;;;;;;5.10;2.00;;;9.90;99.90;;;;;;5041689;28;20434;-84
2021/11/02 03:54:56;;;;;;;4.50;2.10;;;9.90;99.90;;;;;;5045106;28;20549;-84
2021/11/02 03:57:37;;;;;;;4.10;2.00;;;9.80;99.90;;;;;;5041861;28;20434;-84
2021/11/02 04:00:38;;;;;;;4.27;1.80;;;9.80;99.90;;;;;;5041409;28;20538;-83
2021/11/02 04:31:45;;;;;;;6.80;2.43;;;9.70;99.90;;;;;;5054896;28;20413;-84
2021/11/02 04:43:14;;;;;;;7.70;2.20;;;9.60;99.90;;;;;;5046329;28;20892;-84
2021/11/02 05:13:55;;;;;;;5.95;1.52;;;8.90;99.90;;;;;;5017515;28;20463;-79
2021/11/02 05:49:51;;;;;;;5.30;2.45;;;8.50;99.90;;;;;;4987968;28;20255;-79
2021/11/02 05:57:53;;;;;;;6.53;1.90;;;8.50;99.90;;;;;;5020380;28;20220;-80
2021/11/02 06:00:22;;;;;;;5.05;2.50;;;8.50;99.90;;;;;;5019809;28;20668;-80
2021/11/02 06:05:55;;;;;;;4.65;1.92;;;8.50;99.90;;;;;;4995055;28;20197;-79
2021/11/02 06:28:04;;;;;;;5.97;2.40;;;8.30;99.90;;;;;;5018198;28;20222;-79
2021/11/02 06:30:38;;;;;;;5.15;2.72;;;8.30;99.90;;;;;;5018289;28;20244;-78
2021/11/02 06:33:14;;;;;;;4.55;2.45;;;8.30;99.90;;;;;;5018165;28;20201;-79
2021/11/02 06:35:55;;;;;;;5.22;2.28;;;8.30;99.90;;;;;;5018746;28;20189;-79
2021/11/02 06:50:12;;;;;;;6.75;2.78;;;8.20;99.90;;;;;;4962985;28;20238;-80
2021/11/02 06:59:12;;;;;;;4.60;2.78;;;8.10;99.90;;;;;;4993147;28;20257;-79
2021/11/02 07:16:09;;;;;;;8.35;2.80;;;8.50;99.90;;;;;;5021993;28;20208;-80
2021/11/02 07:18:37;;;;;;;5.00;2.40;;;8.50;99.90;;;;;;5018953;28;20599;-80
2021/11/02 07:21:08;;;;;;;9.20;2.72;;;8.60;99.90;;;;;;5018927;28;20271;-78
2021/11/02 07:23:43;;;;;;;6.13;2.88;;;8.70;99.90;;;;;;5017260;28;20532;-78
2021/11/02 07:26:22;;;;;;;6.78;2.67;;;8.60;99.90;;;;;;5017577;28;20202;-79
2021/11/02 08:47:08;;;;;;;4.53;1.80;;;11.20;99.90;;;;;;5017717;28;20417;-79
2021/11/02 08:49:41;;;;;;;4.40;1.80;;;11.30;99.90;;;;;;5018747;28;20427;-80
2021/11/02 08:52:09;;;;;;;4.80;1.63;;;11.40;99.90;;;;;;5016341;28;20430;-79
2021/11/02 08:54:37;;;;;;;6.87;1.73;;;11.40;99.90;;;;;;5017271;28;20512;-81
2021/11/02 08:57:05;;;;;;;5.90;2.40;;;11.50;99.90;;;;;;5017389;28;20462;-79
2021/11/02 08:59:33;;;;;;;6.60;2.13;;;11.50;99.90;;;;;;5017888;28;20497;-79
2021/11/02 09:02:02;;;;;;;4.63;2.20;;;11.60;99.90;;;;;;5016119;28;20482;-78
2021/11/02 09:04:31;;;;;;;4.50;1.60;;;11.70;99.90;;;;;;5017504;28;20899;-78
2021/11/02 09:07:02;;;;;;;4.27;1.80;;;11.70;99.90;;;;;;5020640;28;20461;-78
2021/11/02 09:09:34;;;;;;;3.13;1.20;;;11.80;99.90;;;;;;5026197;28;20526;-78
2021/11/02 09:12:03;;;;;;;4.33;1.70;;;11.80;99.90;;;;;;5021055;28;20434;-79
2021/11/02 09:14:33;;;;;;;5.63;1.20;;;11.70;99.90;;;;;;5019571;28;20972;-79
2021/11/02 09:17:01;;;;;;;4.63;1.37;;;11.70;99.90;;;;;;5020316;28;20446;-80
2021/11/02 09:19:29;;;;;;;3.03;1.20;;;11.70;99.90;;;;;;5019826;28;20769;-78
2021/11/02 09:21:56;;;;;;;6.70;1.80;;;11.50;99.90;;;;;;5020035;28;20489;-80
2021/11/02 09:24:24;;;;;;;4.00;1.40;;;11.40;99.90;;;;;;5019400;28;20465;-80
2021/11/02 09:26:52;;;;;;;3.60;1.20;;;11.30;99.90;;;;;;5019639;28;20458;-78
2021/11/02 09:29:20;;;;;;;6.53;2.23;;;11.40;99.90;;;;;;5021262;28;20483;-79
2021/11/02 09:31:47;;;;;;;2.90;1.27;;;11.30;99.90;;;;;;5019816;28;20453;-79
2021/11/02 09:34:14;;;;;;;5.50;1.67;;;11.30;99.90;;;;;;5020542;28;20467;-78
2021/11/02 09:36:45;;;;;;;4.90;1.53;;;11.20;99.90;;;;;;5019855;28;20544;-79
2021/11/02 09:39:14;;;;;;;5.33;1.53;;;11.10;99.90;;;;;;5019965;28;20473;-80
2021/11/02 09:42:14;;;;;;;3.73;1.60;;;11.10;99.90;;;;;;5020347;28;20949;-79
2021/11/02 09:45:11;;;;;;;5.07;1.70;;;11.00;99.90;;;;;;5019517;28;20460;-79
2021/11/02 09:48:27;;;;;;;3.03;1.40;;;10.90;99.90;;;;;;5019324;28;20489;-79
2021/11/02 09:51:27;;;;;;;3.57;1.60;;;10.90;99.90;;;;;;5019488;28;20769;-79
2021/11/02 09:54:26;;;;;;;3.77;1.30;;;10.90;99.90;;;;;;5018779;28;20760;-79
2021/11/02 09:57:15;;;;;;;2.80;1.27;;;11.00;99.90;;;;;;5015551;28;20454;-78
2021/11/02 09:59:56;;;;;;;4.37;2.20;;;11.00;99.90;;;;;;5019038;28;20434;-80
2021/11/02 10:02:53;;;;;;;3.53;1.60;;;11.00;99.90;;;;;;5019376;28;20493;-80
2021/11/02 10:05:41;;;;;;;4.50;1.23;;;11.00;99.90;;;;;;5022871;28;20456;-80
2021/11/02 10:08:24;;;;;;;7.23;1.73;;;11.00;99.90;;;;;;5021000;28;20478;-80
2021/11/02 10:11:02;;;;;;;4.50;1.60;;;10.90;99.90;;;;;;5019297;28;20444;-80
2021/11/02 10:13:46;;;;;;;4.07;1.93;;;11.00;99.90;;;;;;5022760;28;20916;-80
2021/11/02 10:16:40;;;;;;;6.13;1.83;;;10.90;99.90;;;;;;5026589;28;20413;-79
2021/11/02 10:19:45;;;;;;;4.40;2.20;;;11.10;99.90;;;;;;5021454;28;20468;-79
2021/11/02 10:22:49;;;;;;;5.10;2.10;;;11.10;99.90;;;;;;4989145;28;20560;-79
2021/11/02 10:25:21;;;;;;;4.80;1.90;;;11.10;99.90;;;;;;5024111;28;20408;-80
2021/11/02 10:28:22;;;;;;;7.80;2.27;;;11.10;99.90;;;;;;5019115;28;20488;-79
2021/11/02 10:30:55;;;;;;;5.27;2.13;;;11.10;99.90;;;;;;5020391;28;20512;-79
2021/11/02 10:33:32;;;;;;;5.03;2.10;;;11.10;99.90;;;;;;5018815;28;20537;-78
2021/11/02 10:36:16;;;;;;;5.83;3.07;;;11.00;99.90;;;;;;5017506;28;20821;-79
2021/11/02 10:38:54;;;;;;;7.90;3.90;;;11.00;99.90;;;;;;5017973;28;20849;-79
2021/11/02 10:41:28;;;;;;;6.40;2.03;;;11.00;99.90;;;;;;5017256;28;20510;-79
2021/11/02 10:44:09;;;;;;;5.03;1.80;;;11.00;99.90;;;;;;5000676;28;20446;-79
2021/11/02 10:46:39;;;;;;;5.80;2.40;;;11.10;99.90;;;;;;5020129;28;20429;-79
2021/11/02 10:49:23;;;;;;;5.23;2.23;;;11.10;99.90;;;;;;5055262;22;20492;-80
2021/11/02 10:52:02;;;;;;;5.50;2.10;;;11.10;99.90;;;;;;5039641;28;20516;-80
2021/11/02 10:54:47;;;;;;;5.17;1.47;;;11.00;99.90;;;;;;5039137;28;20419;-80
2021/11/02 10:57:37;;;;;;;4.10;1.60;;;11.00;99.90;;;;;;5038820;28;20441;-80
2021/11/02 11:00:08;;;;;;;5.30;1.73;;;11.00;99.90;;;;;;5019027;28;20991;-80
2021/11/02 11:02:37;;;;;;;6.87;2.17;;;11.10;99.90;;;;;;5019568;28;21020;-81
2021/11/02 11:05:08;;;;;;;8.17;2.27;;;11.10;99.90;;;;;;5019364;28;20529;-80
2021/11/02 11:07:38;;;;;;;5.03;1.67;;;11.10;99.90;;;;;;5018527;28;20474;-79
2021/11/02 11:10:06;;;;;;;4.00;1.87;;;11.00;99.90;;;;;;5018498;28;20548;-80
2021/11/02 11:12:39;;;;;;;3.83;1.83;;;11.10;99.90;;;;;;5020946;28;20522;-80
2021/11/02 11:15:08;;;;;;;6.20;2.07;;;11.10;99.90;;;;;;5019138;28;20488;-80
2021/11/02 11:17:36;;;;;;;5.70;1.80;;;11.10;99.90;;;;;;5018641;28;20893;-80
2021/11/02 11:20:13;;;;;;;5.93;2.23;;;11.20;99.90;;;;;;5019003;28;20432;-80
2021/11/02 11:22:42;;;;;;;6.60;3.00;;;11.30;99.90;;;;;;5024245;28;20473;-80
2021/11/02 11:25:15;;;;;;;5.63;2.20;;;11.30;99.90;;;;;;5024460;28;20468;-80
2021/11/02 11:27:55;;;;;;;8.33;2.20;;;11.40;99.90;;;;;;5021629;28;20553;-80
2021/11/02 11:30:23;;;;;;;5.13;2.13;;;11.50;99.90;;;;;;5017815;28;20844;-80
2021/11/02 11:32:52;;;;;;;6.40;2.93;;;11.50;99.90;;;;;;5018268;28;20450;-80
2021/11/02 11:35:20;;;;;;;5.00;2.70;;;11.50;99.90;;;;;;5020779;28;20860;-80
2021/11/02 11:37:50;;;;;;;4.73;2.10;;;11.60;99.90;;;;;;5019064;28;20969;-80
2021/11/02 11:40:19;;;;;;;4.33;1.90;;;11.70;99.90;;;;;;5020960;28;20497;-80
2021/11/02 11:42:47;;;;;;;4.87;2.47;;;11.80;99.90;;;;;;5022850;28;20541;-81
2021/11/02 11:45:17;;;;;;;7.77;2.00;;;11.90;99.90;;;;;;5017760;28;20481;-80
2021/11/02 11:47:44;;;;;;;4.63;2.13;;;12.00;99.90;;;;;;5018486;28;20477;-80
2021/11/02 11:50:25;;;;;;;3.60;1.40;;;12.10;99.90;;;;;;5017360;28;21013;-80
2021/11/02 11:52:54;;;;;;;3.83;1.60;;;12.30;99.90;;;;;;5018311;28;20967;-80
2021/11/02 11:55:25;;;;;;;5.17;1.90;;;12.30;99.90;;;;;;5018423;28;20576;-80
2021/11/02 11:58:10;;;;;;;4.50;1.87;;;12.50;99.90;;;;;;5019124;28;20801;-80
2021/11/02 12:00:38;;;;;;;7.07;1.77;;;12.60;99.90;;;;;;5018921;28;20435;-80
2021/11/02 12:03:12;;;;;;;3.50;1.23;;;12.70;99.90;;;;;;5018587;28;20514;-80
2021/11/02 12:05:45;;;;;;;3.30;1.40;;;12.70;99.90;;;;;;5019504;28;20448;-80
2021/11/02 12:08:21;;;;;;;4.57;1.53;;;12.80;99.90;;;;;;5019209;28;20516;-80
2021/11/02 12:10:52;;;;;;;3.20;1.50;;;12.80;99.90;;;;;;5020032;28;20424;-80
2021/11/02 12:13:19;;;;;;;3.60;1.60;;;12.90;99.90;;;;;;5020428;28;20500;-80
2021/11/02 12:15:58;;;;;;;3.63;1.33;;;12.90;99.90;;;;;;5018640;28;20831;-81
2021/11/02 12:18:28;;;;;;;4.73;1.53;;;12.70;99.90;;;;;;5018418;28;20518;-80
2021/11/02 12:20:57;;;;;;;2.97;1.10;;;12.80;99.90;;;;;;5025726;28;20476;-80
2021/11/02 12:23:37;;;;;;;2.93;1.03;;;12.70;99.90;;;;;;5027918;28;20615;-79
2021/11/02 12:26:05;;;;;;;6.83;2.50;;;12.60;99.90;;;;;;5029531;28;20436;-83
2021/11/02 12:28:35;;;;;;;4.13;1.67;;;12.60;99.90;;;;;;5031849;28;20472;-81
2021/11/02 12:31:04;;;;;;;3.30;1.50;;;12.60;99.90;;;;;;5031222;28;20413;-82
2021/11/02 12:33:32;;;;;;;4.70;2.00;;;12.50;99.90;;;;;;5021226;28;20428;-83
2021/11/02 12:36:03;;;;;;;2.80;0.90;;;12.50;99.90;;;;;;5020178;28;20432;-82
2021/11/02 12:38:35;;;;;;;3.13;1.20;;;12.50;99.90;;;;;;5020919;28;20513;-84
2021/11/02 12:41:14;;;;;;;2.60;1.10;;;12.40;99.90;;;;;;5021834;28;20504;-85
2021/11/02 12:43:41;;;;;;;2.57;0.80;;;12.50;99.90;;;;;;5020545;28;20456;-85
2021/11/02 12:46:09;;;;;;;3.33;1.40;;;12.60;99.90;;;;;;5027182;28;20460;-85
2021/11/02 12:48:37;;;;;;;3.53;1.33;;;12.50;99.90;;;;;;5027764;28;20484;-85
2021/11/02 12:51:10;;;;;;;3.90;1.60;;;12.50;99.90;;;;;;5022131;28;20490;-84
2021/11/02 12:53:47;;;;;;;3.93;1.47;;;12.60;99.90;;;;;;5021744;28;20819;-83
2021/11/02 12:56:17;;;;;;;3.13;1.10;;;12.50;99.90;;;;;;5028040;28;20519;-83
2021/11/02 12:58:47;;;;;;;2.40;0.80;;;12.40;99.90;;;;;;5031492;28;20473;-83
2021/11/02 13:01:33;;;;;;;2.70;0.70;;;12.50;99.90;;;;;;5022421;28;20491;-84
2021/11/02 13:04:06;;;;;;;4.03;0.80;;;12.50;99.90;;;;;;5021277;28;20465;-83
2021/11/02 13:06:44;;;;;;;2.83;0.97;;;12.60;99.90;;;;;;5031294;28;20484;-83
2021/11/02 13:09:14;;;;;;;2.80;1.20;;;12.60;99.90;;;;;;5021895;28;20469;-83
2021/11/02 13:11:42;;;;;;;2.50;0.80;;;12.60;99.90;;;;;;5024308;28;20465;-83
2021/11/02 13:14:16;;;;;;;2.40;0.70;;;12.80;99.90;;;;;;5020838;28;20425;-83
2021/11/02 13:17:00;;;;;;;2.60;0.80;;;12.80;99.90;;;;;;5019516;28;20412;-84
2021/11/02 13:19:38;;;;;;;3.00;1.10;;;12.80;99.90;;;;;;5018775;28;20474;-83
2021/11/02 13:22:15;;;;;;;3.00;0.70;;;12.90;99.90;;;;;;5019591;28;20549;-83
2021/11/02 13:25:05;;;;;;;4.80;0.90;;;12.90;99.90;;;;;;5020034;28;20434;-83
2021/11/02 13:27:35;;;;;;;2.60;0.83;;;12.90;99.90;;;;;;5019099;28;20410;-83
2021/11/02 13:30:31;;;;;;;2.20;0.60;;;12.80;99.90;;;;;;5020521;28;20529;-83
2021/11/02 13:33:01;;;;;;;3.43;1.30;;;12.90;99.90;;;;;;5020179;28;20459;-83
2021/11/02 13:35:39;;;;;;;3.57;0.83;;;12.80;99.90;;;;;;5026848;28;20443;-83
2021/11/02 13:38:27;;;;;;;2.47;0.80;;;12.50;99.90;;;;;;5019533;28;20990;-83
2021/11/02 13:40:55;;;;;;;2.30;0.70;;;12.40;99.90;;;;;;5018484;28;20976;-83
2021/11/02 13:43:26;;;;;;;5.77;1.87;;;12.50;99.90;;;;;;5018687;28;20494;-83
2021/11/02 13:45:54;;;;;;;3.33;1.17;;;12.50;99.90;;;;;;5019580;28;20581;-83
2021/11/02 13:48:22;;;;;;;2.40;0.73;;;12.40;99.90;;;;;;5018684;28;20460;-83
2021/11/02 13:50:49;;;;;;;4.30;1.30;;;12.30;99.90;;;;;;5020022;28;20473;-82
2021/11/02 13:53:16;;;;;;;3.40;1.40;;;12.30;99.90;;;;;;5023232;28;20801;-82
2021/11/02 13:55:45;;;;;;;2.53;0.90;;;12.30;99.90;;;;;;5021690;28;20446;-82
2021/11/02 13:58:13;;;;;;;2.80;1.10;;;12.20;99.90;;;;;;5021580;28;20451;-83
2021/11/02 14:00:41;;;;;;;2.83;0.80;;;12.30;99.90;;;;;;5022456;28;20532;-83
2021/11/02 14:03:11;;;;;;;2.80;0.73;;;12.20;99.90;;;;;;5022259;28;21030;-83
2021/11/02 14:05:42;;;;;;;3.67;1.67;;;12.20;99.90;;;;;;5021991;28;20432;-84
2021/11/02 14:08:09;;;;;;;3.33;0.90;;;12.20;99.90;;;;;;5022033;28;20816;-84
2021/11/02 14:10:35;;;;;;;3.43;1.00;;;12.30;99.90;;;;;;5023169;28;20441;-82
2021/11/02 14:13:04;;;;;;;4.07;2.30;;;12.30;99.90;;;;;;5021685;28;20481;-83
2021/11/02 14:15:32;;;;;;;2.63;0.73;;;12.40;99.90;;;;;;5021363;28;20853;-83
2021/11/02 14:18:10;;;;;;;2.53;0.80;;;12.50;99.90;;;;;;5023538;28;20453;-83
2021/11/02 14:20:40;;;;;;;2.63;0.80;;;12.60;99.90;;;;;;5023695;28;20490;-82
2021/11/02 14:23:08;;;;;;;2.80;1.03;;;12.60;99.90;;;;;;5022130;28;20456;-83
2021/11/02 14:25:36;;;;;;;2.40;0.70;;;12.70;99.90;;;;;;5022499;28;20526;-83
2021/11/02 14:28:05;;;;;;;2.87;1.07;;;12.90;99.90;;;;;;5023517;28;20470;-84
2021/11/02 14:30:41;;;;;;;2.50;0.80;;;12.90;99.90;;;;;;5022731;28;20767;-84
2021/11/02 14:33:09;;;;;;;3.47;0.90;;;12.80;99.90;;;;;;5019759;28;20512;-82
2021/11/02 14:35:50;;;;;;;3.17;1.23;;;12.90;99.90;;;;;;5020864;28;20443;-81
2021/11/02 14:38:19;;;;;;;3.10;1.00;;;12.80;99.90;;;;;;5020722;28;20514;-82
2021/11/02 14:40:47;;;;;;;3.83;0.90;;;12.70;99.90;;;;;;5020759;28;20564;-80
2021/11/02 14:43:30;;;;;;;2.93;0.90;;;12.50;99.90;;;;;;5021261;28;20457;-82
2021/11/02 14:45:59;;;;;;;2.70;0.90;;;12.40;99.90;;;;;;5020027;28;20461;-80
2021/11/02 14:48:35;;;;;;;3.87;1.27;;;12.40;99.90;;;;;;5021061;28;20453;-81
2021/11/02 14:51:03;;;;;;;2.73;0.93;;;12.40;99.90;;;;;;5020675;28;20932;-81
2021/11/02 14:53:34;;;;;;;3.60;0.90;;;12.30;99.90;;;;;;5021088;28;20555;-82
2021/11/02 14:56:03;;;;;;;2.97;0.87;;;12.30;99.90;;;;;;5023089;28;20443;-82
2021/11/02 14:58:52;;;;;;;3.60;0.90;;;12.30;99.90;;;;;;5022351;28;20477;-81
2021/11/02 15:01:26;;;;;;;2.60;1.10;;;12.20;99.90;;;;;;5024010;28;20525;-79
2021/11/02 15:03:59;;;;;;;2.83;1.00;;;12.30;99.90;;;;;;5026717;28;20548;-84
2021/11/02 15:06:34;;;;;;;6.83;1.50;;;12.10;99.90;;;;;;5025242;28;20543;-81
2021/11/02 15:09:04;;;;;;;2.60;0.90;;;12.10;99.90;;;;;;5024624;28;20444;-83
2021/11/02 15:11:31;;;;;;;2.67;0.80;;;12.10;99.90;;;;;;5023989;28;20423;-81
2021/11/02 15:14:02;;;;;;;5.00;1.40;;;12.10;99.90;;;;;;5020192;28;20509;-81
2021/11/02 15:16:29;;;;;;;2.20;0.70;;;12.10;99.90;;;;;;5020618;28;20499;-83
2021/11/02 15:19:01;;;;;;;2.40;0.70;;;12.00;99.90;;;;;;5020563;28;20562;-84
2021/11/02 15:21:30;;;;;;;3.33;0.77;;;11.90;99.90;;;;;;5019418;28;20441;-81
2021/11/02 15:24:04;;;;;;;6.43;0.90;;;11.90;99.90;;;;;;5020085;28;20469;-81
2021/11/02 15:26:32;;;;;;;3.00;0.93;;;11.80;99.90;;;;;;5021434;28;20417;-82
2021/11/02 15:29:03;;;;;;;3.03;1.30;;;11.70;99.90;;;;;;5029637;28;20444;-80
2021/11/02 15:31:29;;;;;;;3.03;0.90;;;11.70;99.90;;;;;;5023987;28;20470;-82
2021/11/02 15:33:56;;;;;;;2.83;1.17;;;11.70;99.90;;;;;;5026985;28;20464;-82
2021/11/02 15:36:23;;;;;;;4.00;0.97;;;11.70;99.90;;;;;;5021701;28;20424;-82
2021/11/02 15:38:59;;;;;;;2.50;1.10;;;11.70;99.90;;;;;;5017685;28;20445;-82
2021/11/02 15:41:26;;;;;;;3.30;1.17;;;11.50;99.90;;;;;;5023479;28;20457;-82
2021/11/02 15:43:56;;;;;;;2.47;0.80;;;11.40;99.90;;;;;;5030240;28;20600;-82
2021/11/02 15:46:33;;;;;;;4.43;1.00;;;11.30;99.90;;;;;;5022761;28;20458;-83
2021/11/02 15:49:04;;;;;;;3.23;1.37;;;11.20;99.90;;;;;;5020269;28;20493;-82
2021/11/02 15:51:33;;;;;;;4.07;1.20;;;11.20;99.90;;;;;;5019372;28;20445;-83
2021/11/02 15:54:00;;;;;;;4.33;1.67;;;11.10;99.90;;;;;;5020253;28;20482;-82
2021/11/02 15:56:28;;;;;;;3.23;1.17;;;11.10;99.90;;;;;;5029308;28;20435;-82
2021/11/02 15:58:59;;;;;;;2.93;0.80;;;11.00;99.90;;;;;;5026863;28;20529;-82
2021/11/02 16:01:44;;;;;;;2.23;0.70;;;11.00;99.90;;;;;;5021244;28;20453;-82
2021/11/02 16:04:13;;;;;;;2.93;1.30;;;11.10;99.90;;;;;;5026975;28;20471;-82
2021/11/02 16:06:58;;;;;;;2.83;1.10;;;11.00;99.90;;;;;;5025677;28;20445;-82
2021/11/02 16:09:27;;;;;;;3.03;0.90;;;11.00;99.90;;;;;;5022322;28;20998;-81
2021/11/02 16:11:54;;;;;;;3.10;0.93;;;11.10;99.90;;;;;;5021043;28;20488;-83
2021/11/02 16:14:21;;;;;;;4.80;1.50;;;11.10;99.90;;;;;;5020490;28;20922;-82
2021/11/02 16:16:50;;;;;;;3.20;1.00;;;11.10;99.90;;;;;;5034145;28;20468;-82
2021/11/02 16:19:19;;;;;;;3.50;1.20;;;11.10;99.90;;;;;;5033381;28;20471;-82
2021/11/02 16:21:47;;;;;;;5.60;1.73;;;11.10;99.90;;;;;;5021453;28;20468;-82
2021/11/02 16:24:14;;;;;;;3.97;1.90;;;11.10;99.90;;;;;;5021366;28;20486;-82
2021/11/02 16:26:42;;;;;;;4.60;1.60;;;11.20;99.90;;;;;;5022414;28;20453;-83
2021/11/02 16:29:11;;;;;;;3.30;1.40;;;11.10;99.90;;;;;;5020201;28;20565;-83
2021/11/02 16:31:38;;;;;;;4.57;1.93;;;11.20;99.90;;;;;;5020369;28;20513;-84
2021/11/02 16:34:21;;;;;;;5.30;2.33;;;11.20;99.90;;;;;;5019504;28;20543;-83
2021/11/02 16:36:48;;;;;;;4.17;1.87;;;11.10;99.90;;;;;;5020162;28;20462;-80
2021/11/02 16:39:21;;;;;;;3.20;1.20;;;11.20;99.90;;;;;;5018269;28;20509;-84
2021/11/02 16:41:49;;;;;;;3.70;1.50;;;11.20;99.90;;;;;;5019576;28;20468;-81
2021/11/02 16:44:18;;;;;;;3.90;1.50;;;11.20;99.90;;;;;;5021122;28;20790;-83
2021/11/02 16:46:50;;;;;;;3.33;1.60;;;11.30;99.90;;;;;;5024294;28;20509;-87
2021/11/02 16:49:25;;;;;;;4.17;1.70;;;11.20;99.90;;;;;;5052924;22;20891;-79
2021/11/02 16:51:53;;;;;;;6.30;2.07;;;11.40;99.90;;;;;;5057662;28;20431;-79
2021/11/02 16:54:22;;;;;;;5.67;2.00;;;11.30;99.90;;;;;;5058228;28;20822;-79
2021/11/02 16:57:04;;;;;;;5.20;2.13;;;11.10;99.90;;;;;;5055946;28;20474;-78
2021/11/02 16:59:58;;;;;;;4.50;1.93;;;10.90;99.90;;;;;;5055394;28;20517;-78
2021/11/02 17:02:26;;;;;;;3.90;1.67;;;10.80;99.90;;;;;;5053250;28;20529;-77
2021/11/02 17:05:17;;;;;;;4.23;1.70;;;10.70;99.90;;;;;;5054955;28;20561;-78
2021/11/02 17:07:46;;;;;;;5.53;2.23;;;10.70;99.90;;;;;;5053307;28;20451;-78
2021/11/02 17:10:19;;;;;;;4.07;1.90;;;10.70;99.90;;;;;;5056720;28;20474;-79
2021/11/02 17:12:48;;;;;;;3.93;1.50;;;10.80;99.90;;;;;;5056808;28;20428;-79
2021/11/02 17:15:19;;;;;;;3.00;1.43;;;10.70;99.90;;;;;;5056408;28;20944;-78
2021/11/02 17:17:46;;;;;;;3.00;1.40;;;10.70;99.90;;;;;;5056313;28;20915;-79
2021/11/02 17:20:16;;;;;;;3.33;1.50;;;11.00;99.90;;;;;;5055654;28;20475;-79
2021/11/02 17:22:45;;;;;;;4.13;2.03;;;11.10;99.90;;;;;;5054947;28;20978;-78
2021/11/02 17:25:13;;;;;;;3.20;1.80;;;10.90;99.90;;;;;;5056334;28;20487;-78
2021/11/02 17:27:40;;;;;;;4.50;2.20;;;10.60;99.90;;;;;;5059319;28;20769;-77
2021/11/02 17:30:16;;;;;;;3.90;1.87;;;10.60;99.90;;;;;;5058650;28;20494;-79
2021/11/02 17:32:44;;;;;;;4.70;2.13;;;10.60;99.90;;;;;;5059133;28;20405;-79
2021/11/02 17:35:12;;;;;;;4.20;2.30;;;10.60;99.90;;;;;;5058505;28;20432;-77
2021/11/02 17:37:41;;;;;;;5.00;2.63;;;10.50;99.90;;;;;;5060967;28;20447;-79
2021/11/02 17:40:09;;;;;;;6.00;2.07;;;10.40;99.90;;;;;;5066198;28;20967;-79
2021/11/02 17:42:37;;;;;;;5.37;2.30;;;10.20;99.90;;;;;;5062129;28;20434;-80
2021/11/02 17:45:06;;;;;;;4.23;2.50;;;10.10;99.90;;;;;;5065175;28;20605;-80